HE30 weather

Kom Awshim Airport
Faiyum Governorate, Egypt

Public forecast

Using degrees Celsius for public forecast. Weather courtesy of forecast.io.

METAR (pilot weather report)

Closest report is Cairo International Airport, 43.2 nm (80.1 km) NE. Retrieved 2019/03/22 05:30 UTC (15 minutes ago):

HECA 220530Z 05010KT 6000 FEW025 15/12 Q1017 NOSIG

TAF (pilot weather forecast)

Forecast is more than 12 hours old.

Closest forecast is Cairo International Airport, 43.2 nm (80.1 km) NE. Retrieved 2019/03/21 00:40 UTC (1 day ago):

TAF HECA 212300Z 2200/2306 01008KT 6000 NSC TEMPO 2200/2208 VRB03KT 3000 BR TEMPO 2201/2205 1000 BECMG 2210/2212 9999 FEW025